createdAt,value
2023-01-30T00:02:29.616Z,-2.90
2023-01-30T00:04:58.649Z,-2.90
2023-01-30T00:07:26.635Z,-2.90
2023-01-30T00:09:54.865Z,-2.90
2023-01-30T00:12:22.952Z,-2.90
2023-01-30T00:14:50.911Z,-3.00
2023-01-30T00:17:19.090Z,-3.00
2023-01-30T00:19:48.505Z,-3.00
2023-01-30T00:22:17.234Z,-3.00
2023-01-30T00:24:45.378Z,-3.10
2023-01-30T00:27:14.069Z,-3.10
2023-01-30T00:29:43.237Z,-3.10
2023-01-30T00:32:12.312Z,-3.10
2023-01-30T00:34:41.038Z,-3.20
2023-01-30T00:37:10.461Z,-3.10
2023-01-30T00:39:38.512Z,-3.10
2023-01-30T00:42:24.229Z,-3.10
2023-01-30T00:45:10.437Z,-3.10
2023-01-30T00:47:38.617Z,-3.10
2023-01-30T00:50:07.490Z,-3.20
2023-01-30T00:52:36.987Z,-3.10
2023-01-30T00:55:05.258Z,-3.10
2023-01-30T00:57:34.142Z,-3.20
2023-01-30T01:00:02.280Z,-3.20
2023-01-30T01:02:30.377Z,-3.20
2023-01-30T01:04:58.722Z,-3.20
2023-01-30T01:07:26.722Z,-3.10
2023-01-30T01:09:56.319Z,-3.10
2023-01-30T01:12:24.410Z,-3.10
2023-01-30T01:14:52.440Z,-3.10
2023-01-30T01:17:20.614Z,-3.10
2023-01-30T01:19:48.591Z,-3.10
2023-01-30T01:22:17.183Z,-3.10
2023-01-30T01:24:45.166Z,-2.00
2023-01-30T01:27:14.772Z,-3.20
2023-01-30T01:29:43.016Z,-3.20
2023-01-30T01:32:15.933Z,-3.20
2023-01-30T01:34:44.379Z,-3.20
2023-01-30T01:37:12.857Z,-3.20
2023-01-30T01:39:58.384Z,-3.20
2023-01-30T01:42:31.345Z,-3.20
2023-01-30T01:45:05.349Z,-3.20
2023-01-30T01:47:36.055Z,-3.20
2023-01-30T01:50:06.358Z,-3.20
2023-01-30T01:52:34.553Z,-3.20
2023-01-30T01:55:05.973Z,-3.20
2023-01-30T01:57:38.730Z,-3.20
2023-01-30T02:00:11.531Z,-3.20
2023-01-30T02:02:41.606Z,-3.20
2023-01-30T02:05:12.538Z,-3.20
2023-01-30T02:07:44.720Z,-3.20
2023-01-30T02:10:18.889Z,-3.20
2023-01-30T02:12:49.222Z,-3.20
2023-01-30T02:15:19.920Z,-3.20
2023-01-30T02:17:48.175Z,-3.20
2023-01-30T02:20:28.004Z,-3.20
2023-01-30T02:23:15.309Z,-3.20
2023-01-30T02:26:15.789Z,-3.20
2023-01-30T02:29:12.934Z,-3.30
2023-01-30T02:31:46.886Z,-3.20
2023-01-30T02:34:36.630Z,-3.20
2023-01-30T02:37:16.331Z,-3.20
2023-01-30T02:39:59.046Z,-3.20
2023-01-30T02:42:35.633Z,-3.30
2023-01-30T02:45:11.523Z,-3.20
2023-01-30T02:47:46.676Z,-3.30
2023-01-30T02:50:20.322Z,-3.30
2023-01-30T02:52:49.575Z,-3.30
2023-01-30T02:55:21.033Z,-3.20
2023-01-30T02:57:49.363Z,-3.20
2023-01-30T03:00:22.279Z,-3.20
2023-01-30T03:03:19.407Z,-3.20
2023-01-30T03:06:11.617Z,-3.20
2023-01-30T03:08:51.024Z,-3.20
2023-01-30T03:11:24.375Z,-3.20
2023-01-30T03:13:56.961Z,-3.20
2023-01-30T03:16:29.547Z,-3.20
2023-01-30T03:19:02.027Z,-3.20
2023-01-30T03:21:29.999Z,-3.20
2023-01-30T03:23:58.160Z,-3.20
2023-01-30T03:26:31.248Z,-3.20
2023-01-30T03:28:59.629Z,-3.20
2023-01-30T03:31:28.193Z,-3.20
2023-01-30T03:33:56.318Z,-3.20
2023-01-30T03:36:25.718Z,-3.20
2023-01-30T03:38:53.841Z,-3.20
2023-01-30T03:41:22.135Z,-3.20
2023-01-30T03:43:50.405Z,-3.20
2023-01-30T03:46:18.553Z,-3.20
2023-01-30T03:48:46.545Z,-3.20
2023-01-30T03:51:14.528Z,-3.20
2023-01-30T03:53:43.889Z,-3.20
2023-01-30T03:56:12.294Z,-3.20
2023-01-30T03:58:40.445Z,-3.20
2023-01-30T04:01:08.531Z,-3.20
2023-01-30T04:03:36.685Z,-3.20
2023-01-30T04:06:04.809Z,-3.20
2023-01-30T04:08:33.070Z,-3.20
2023-01-30T04:11:02.468Z,-3.10
2023-01-30T04:13:30.633Z,-3.10
2023-01-30T04:16:17.635Z,-3.10
2023-01-30T04:18:45.929Z,-3.10
2023-01-30T04:21:14.840Z,-3.10
2023-01-30T04:23:43.474Z,-3.10
2023-01-30T04:26:14.692Z,-3.10
2023-01-30T04:28:42.939Z,-3.00
2023-01-30T04:31:11.512Z,-3.00
2023-01-30T04:33:40.349Z,-3.00
2023-01-30T04:36:10.328Z,-3.00
2023-01-30T04:38:39.162Z,-3.00
2023-01-30T04:41:07.304Z,-2.90
2023-01-30T04:43:37.933Z,-3.00
2023-01-30T04:46:06.198Z,-2.90
2023-01-30T04:48:34.234Z,-3.00
2023-01-30T04:51:02.295Z,-3.00
2023-01-30T04:53:30.314Z,-3.00
2023-01-30T04:55:58.904Z,-3.00
2023-01-30T04:58:26.975Z,-3.00
2023-01-30T05:00:56.333Z,-3.00
2023-01-30T05:03:24.346Z,-3.00
2023-01-30T05:05:52.440Z,-3.00
2023-01-30T05:08:20.986Z,-3.00
2023-01-30T05:10:49.297Z,-3.00
2023-01-30T05:13:17.553Z,-3.00
2023-01-30T05:15:46.628Z,-3.10
2023-01-30T05:18:16.077Z,-3.00
2023-01-30T05:20:44.724Z,-3.10
2023-01-30T05:23:12.662Z,-3.10
2023-01-30T05:25:40.616Z,-3.10
2023-01-30T05:28:08.862Z,-3.10
2023-01-30T05:30:37.743Z,-3.10
2023-01-30T05:33:06.236Z,-3.10
2023-01-30T05:35:35.674Z,-3.10
2023-01-30T05:38:03.653Z,-3.10
2023-01-30T05:40:31.691Z,-3.10
2023-01-30T05:42:59.794Z,-3.10
2023-01-30T05:45:28.495Z,-3.10
2023-01-30T05:48:01.301Z,-3.00
2023-01-30T05:50:29.979Z,-3.00
2023-01-30T05:52:59.925Z,-3.00
2023-01-30T05:55:27.994Z,-3.00
2023-01-30T05:57:57.333Z,-3.00
2023-01-30T06:00:25.641Z,-3.00
2023-01-30T06:02:53.786Z,-3.10
2023-01-30T06:05:23.755Z,-3.10
2023-01-30T06:07:51.766Z,-3.10
2023-01-30T06:10:21.821Z,-3.00
2023-01-30T06:12:49.750Z,-3.10
2023-01-30T06:15:18.014Z,-3.00
2023-01-30T06:17:46.257Z,-3.00
2023-01-30T06:20:14.653Z,-3.00
2023-01-30T06:22:42.938Z,-2.90
2023-01-30T06:25:11.538Z,-2.90
2023-01-30T06:27:40.894Z,-2.90
2023-01-30T06:30:11.868Z,-2.90
2023-01-30T06:32:39.942Z,-2.90
2023-01-30T06:35:09.309Z,-2.90
2023-01-30T06:37:37.376Z,-2.90
2023-01-30T06:40:06.257Z,-2.80
2023-01-30T06:42:34.363Z,-2.80
2023-01-30T06:45:03.951Z,-2.70
2023-01-30T06:47:32.422Z,-2.60
2023-01-30T06:50:00.476Z,-2.50
2023-01-30T06:52:28.771Z,-2.40
2023-01-30T06:54:56.872Z,-2.40
2023-01-30T06:57:25.129Z,-2.30
2023-01-30T06:59:53.842Z,-2.20
2023-01-30T07:02:25.198Z,-2.20
2023-01-30T07:04:53.479Z,-2.50
2023-01-30T07:07:22.201Z,-1.90
2023-01-30T07:10:05.829Z,-1.90
2023-01-30T07:12:37.024Z,-1.90
2023-01-30T07:15:06.920Z,-1.80
2023-01-30T07:17:36.914Z,-1.80
2023-01-30T07:20:05.977Z,-1.80
2023-01-30T07:22:34.438Z,-1.70
2023-01-30T07:25:03.494Z,-1.70
2023-01-30T07:27:32.077Z,-1.70
2023-01-30T07:30:00.739Z,-1.60
2023-01-30T07:32:29.184Z,-1.50
2023-01-30T07:34:59.464Z,-1.50
2023-01-30T07:37:28.358Z,-1.40
2023-01-30T07:39:56.814Z,-1.30
2023-01-30T07:42:25.138Z,-1.20
2023-01-30T07:44:53.466Z,-1.20
2023-01-30T07:47:21.870Z,-1.10
2023-01-30T07:49:50.636Z,-1.00
2023-01-30T07:52:20.618Z,-1.00
2023-01-30T07:54:49.208Z,-0.90
2023-01-30T07:57:17.648Z,-0.80
2023-01-30T07:59:46.027Z,-0.80
2023-01-30T08:02:15.513Z,-0.70
2023-01-30T08:04:44.069Z,-0.70
2023-01-30T08:07:12.600Z,-0.60
2023-01-30T08:09:43.239Z,-0.60
2023-01-30T08:12:11.749Z,-0.50
2023-01-30T08:14:40.626Z,-0.40
2023-01-30T08:17:08.935Z,-0.30
2023-01-30T08:19:37.986Z,-0.20
2023-01-30T08:22:06.323Z,-0.20
2023-01-30T08:24:34.750Z,-0.20
2023-01-30T08:27:04.750Z,-0.10
2023-01-30T08:29:33.291Z,0.00
2023-01-30T08:32:02.365Z,0.10
2023-01-30T08:34:30.822Z,0.10
2023-01-30T08:36:59.389Z,0.20
2023-01-30T08:39:28.478Z,0.40
2023-01-30T08:41:56.969Z,0.50
2023-01-30T08:44:26.923Z,0.70
2023-01-30T08:46:55.408Z,0.80
2023-01-30T08:49:24.250Z,0.90
2023-01-30T08:51:52.829Z,1.10
2023-01-30T08:54:21.118Z,1.20
2023-01-30T08:56:49.421Z,1.20
2023-01-30T08:59:18.167Z,1.30
2023-01-30T09:01:48.272Z,1.60
2023-01-30T09:04:17.331Z,1.70
2023-01-30T09:06:49.169Z,1.80
2023-01-30T09:09:17.828Z,2.90
2023-01-30T09:11:48.228Z,4.20
2023-01-30T09:14:20.304Z,5.10
2023-01-30T09:16:55.661Z,6.10
2023-01-30T09:19:24.979Z,6.10
2023-01-30T09:21:58.907Z,6.90
2023-01-30T09:24:31.752Z,7.60
2023-01-30T09:27:00.450Z,8.10
2023-01-30T09:29:29.967Z,8.20
2023-01-30T09:32:00.242Z,7.50
2023-01-30T09:34:29.128Z,8.30
2023-01-30T09:36:58.394Z,7.10
2023-01-30T09:39:26.762Z,5.80
2023-01-30T09:42:29.269Z,4.80
2023-01-30T09:45:27.776Z,4.40
2023-01-30T09:48:03.971Z,4.30
2023-01-30T09:50:51.852Z,3.90
2023-01-30T09:53:28.588Z,3.70
2023-01-30T09:56:00.667Z,3.50
2023-01-30T09:58:39.070Z,3.20
2023-01-30T10:01:16.995Z,3.30
2023-01-30T10:03:59.688Z,3.20
2023-01-30T10:06:28.424Z,3.30
2023-01-30T10:09:10.368Z,3.40
2023-01-30T10:11:55.778Z,4.00
2023-01-30T10:14:40.229Z,5.10
2023-01-30T10:17:24.704Z,6.30
2023-01-30T10:20:08.931Z,6.40
2023-01-30T10:22:46.176Z,5.70
2023-01-30T10:25:24.001Z,5.30
2023-01-30T10:27:57.850Z,5.50
2023-01-30T10:30:27.311Z,5.30
2023-01-30T10:33:02.458Z,5.70
2023-01-30T10:35:37.477Z,5.60
2023-01-30T10:38:13.595Z,5.30
2023-01-30T10:40:45.590Z,5.60
2023-01-30T10:43:21.868Z,5.40
2023-01-30T10:45:58.319Z,5.00
2023-01-30T10:48:57.952Z,4.80
2023-01-30T10:51:44.137Z,5.20
2023-01-30T10:54:18.054Z,4.30
2023-01-30T10:56:55.231Z,4.40
2023-01-30T10:59:25.682Z,4.40
2023-01-30T11:02:01.420Z,4.20
2023-01-30T11:04:35.756Z,4.10
2023-01-30T11:07:07.357Z,4.10
2023-01-30T11:09:43.689Z,4.30
2023-01-30T11:12:13.170Z,5.00
2023-01-30T11:14:58.879Z,5.60
2023-01-30T11:17:33.642Z,5.80
2023-01-30T11:20:08.250Z,5.60
2023-01-30T11:22:39.205Z,5.30
2023-01-30T11:25:15.233Z,5.00
2023-01-30T11:27:45.552Z,4.90
2023-01-30T11:30:16.580Z,4.80
2023-01-30T11:32:48.033Z,4.80
2023-01-30T11:35:27.470Z,4.70
2023-01-30T11:38:13.794Z,4.50
2023-01-30T11:40:42.255Z,4.40
2023-01-30T11:43:15.093Z,4.10
2023-01-30T11:45:45.803Z,4.00
2023-01-30T11:48:31.544Z,4.10
2023-01-30T11:51:05.178Z,4.10
2023-01-30T11:53:39.487Z,3.90
2023-01-30T11:56:14.101Z,3.80
2023-01-30T11:58:46.215Z,3.80
2023-01-30T12:01:16.212Z,3.70
2023-01-30T12:03:49.696Z,3.60
2023-01-30T12:06:25.505Z,3.60
2023-01-30T12:08:56.167Z,3.40
2023-01-30T12:11:31.272Z,3.50
2023-01-30T12:14:13.057Z,3.40
2023-01-30T12:16:54.668Z,3.40
2023-01-30T12:19:35.421Z,3.50
2023-01-30T12:22:12.296Z,3.50
2023-01-30T12:24:47.591Z,3.50
2023-01-30T12:27:22.331Z,3.60
2023-01-30T12:30:00.580Z,3.60
2023-01-30T12:32:31.996Z,3.50
2023-01-30T12:35:00.434Z,3.40
2023-01-30T12:37:56.688Z,3.50
2023-01-30T12:40:38.001Z,3.40
2023-01-30T12:43:31.549Z,3.40
2023-01-30T12:46:10.507Z,3.30
2023-01-30T12:49:11.301Z,3.40
2023-01-30T12:52:01.213Z,3.50
2023-01-30T12:54:44.525Z,3.60
2023-01-30T12:57:26.072Z,3.70
2023-01-30T13:00:08.130Z,3.70
2023-01-30T13:02:57.249Z,3.70
2023-01-30T13:05:36.806Z,3.60
2023-01-30T13:08:20.163Z,3.60
2023-01-30T13:10:57.925Z,3.50
2023-01-30T13:13:36.334Z,3.60
2023-01-30T13:16:13.095Z,3.50
2023-01-30T13:18:47.183Z,3.50
2023-01-30T13:21:20.021Z,3.60
2023-01-30T13:24:02.728Z,3.50
2023-01-30T13:26:34.873Z,3.50
2023-01-30T13:29:11.092Z,3.50
2023-01-30T13:31:44.073Z,3.40
2023-01-30T13:34:17.456Z,3.40
2023-01-30T13:36:51.291Z,3.30
2023-01-30T13:39:32.368Z,3.30
2023-01-30T13:42:03.505Z,3.30
2023-01-30T13:44:42.652Z,3.30
2023-01-30T13:47:22.147Z,3.20
2023-01-30T13:50:00.766Z,3.20
2023-01-30T13:52:35.310Z,3.10
2023-01-30T13:55:15.887Z,3.10
2023-01-30T13:57:49.167Z,3.10
2023-01-30T14:00:31.278Z,3.10
2023-01-30T14:03:23.352Z,3.10
2023-01-30T14:06:18.921Z,3.00
2023-01-30T14:08:54.900Z,3.00
2023-01-30T14:11:35.744Z,3.00
2023-01-30T14:14:23.665Z,3.00
2023-01-30T14:16:55.236Z,2.90
2023-01-30T14:19:42.202Z,2.80
2023-01-30T14:22:29.982Z,2.80
2023-01-30T14:25:44.016Z,2.70
2023-01-30T14:28:48.483Z,2.70
2023-01-30T14:31:55.980Z,2.60
2023-01-30T14:34:50.917Z,2.50
2023-01-30T14:38:07.461Z,2.50
2023-01-30T14:40:43.259Z,2.40
2023-01-30T14:43:37.951Z,2.40
2023-01-30T14:46:09.152Z,2.40
2023-01-30T14:48:44.791Z,2.40
2023-01-30T14:51:25.695Z,2.30
2023-01-30T14:53:57.110Z,2.30
2023-01-30T14:56:48.898Z,2.30
2023-01-30T14:59:24.774Z,2.30
2023-01-30T15:01:59.566Z,2.20
2023-01-30T15:04:30.851Z,2.20
2023-01-30T15:07:03.289Z,2.20
2023-01-30T15:09:32.849Z,2.20
2023-01-30T15:12:28.754Z,2.10
2023-01-30T15:15:06.736Z,2.10
2023-01-30T15:17:50.563Z,2.10
2023-01-30T15:20:35.774Z,2.10
2023-01-30T15:23:27.229Z,2.00
2023-01-30T15:26:12.805Z,2.00
2023-01-30T15:28:50.656Z,2.00
2023-01-30T15:31:22.240Z,1.90
2023-01-30T15:33:51.591Z,1.90
2023-01-30T15:36:22.175Z,1.90
2023-01-30T15:39:00.324Z,1.80
2023-01-30T15:41:30.101Z,1.80
2023-01-30T15:44:31.417Z,1.80
2023-01-30T15:47:15.604Z,1.70
2023-01-30T15:49:54.784Z,1.70
2023-01-30T15:52:28.929Z,1.60
2023-01-30T15:55:02.257Z,1.60
2023-01-30T15:57:33.758Z,1.60
2023-01-30T16:00:02.514Z,1.70
2023-01-30T16:02:33.436Z,1.70
2023-01-30T16:05:15.946Z,1.60
2023-01-30T16:07:45.230Z,1.60
2023-01-30T16:10:17.358Z,1.50
2023-01-30T16:12:45.945Z,1.40
2023-01-30T16:15:19.650Z,1.40
2023-01-30T16:17:58.875Z,1.30
2023-01-30T16:20:27.456Z,1.40
2023-01-30T16:22:56.469Z,1.30
2023-01-30T16:25:34.383Z,1.20
2023-01-30T16:28:02.659Z,1.20
2023-01-30T16:30:32.258Z,1.20
2023-01-30T16:33:10.491Z,1.20
2023-01-30T16:35:45.536Z,1.20
2023-01-30T16:38:40.405Z,1.20
2023-01-30T16:41:30.912Z,1.20
2023-01-30T16:44:21.348Z,1.30
2023-01-30T16:46:56.803Z,1.30
2023-01-30T16:49:32.633Z,1.30
2023-01-30T16:52:03.937Z,1.40
2023-01-30T16:54:46.116Z,1.40
2023-01-30T16:57:27.255Z,1.40
2023-01-30T16:59:56.034Z,1.40
2023-01-30T17:02:34.606Z,1.40
2023-01-30T17:05:23.712Z,1.40
2023-01-30T17:07:53.734Z,1.40
2023-01-30T17:10:54.731Z,1.40
2023-01-30T17:13:35.630Z,1.50
2023-01-30T17:16:43.370Z,1.50
2023-01-30T17:19:11.444Z,1.50
2023-01-30T17:21:45.236Z,1.50
2023-01-30T17:24:17.327Z,1.50
2023-01-30T17:26:46.187Z,1.50
2023-01-30T17:29:28.926Z,1.50
2023-01-30T17:32:11.773Z,1.50
2023-01-30T17:34:41.705Z,1.50
2023-01-30T17:37:15.582Z,1.60
2023-01-30T17:39:43.716Z,1.60
2023-01-30T17:42:12.511Z,1.50
2023-01-30T17:44:42.610Z,1.60
2023-01-30T17:47:12.163Z,1.60
2023-01-30T17:49:40.998Z,1.60
2023-01-30T17:52:09.512Z,1.60
2023-01-30T17:54:37.560Z,1.60
2023-01-30T17:57:10.002Z,1.70
2023-01-30T17:59:38.103Z,1.70
2023-01-30T18:02:10.397Z,1.70
2023-01-30T18:04:39.934Z,1.70
2023-01-30T18:07:12.696Z,1.60
2023-01-30T18:09:40.773Z,1.60
2023-01-30T18:12:08.924Z,1.60
2023-01-30T18:14:36.952Z,1.60
2023-01-30T18:17:05.450Z,1.60
2023-01-30T18:19:38.451Z,1.50
2023-01-30T18:22:06.720Z,1.50
2023-01-30T18:24:35.203Z,1.50
2023-01-30T18:27:03.569Z,1.50
2023-01-30T18:29:31.912Z,1.60
2023-01-30T18:32:06.024Z,1.60
2023-01-30T18:34:36.118Z,1.60
2023-01-30T18:37:04.152Z,1.60
2023-01-30T18:39:33.165Z,1.60
2023-01-30T18:42:02.101Z,1.60
2023-01-30T18:44:30.695Z,1.60
2023-01-30T18:46:59.390Z,1.70
2023-01-30T18:49:27.503Z,1.70
2023-01-30T18:51:56.893Z,1.60
2023-01-30T18:54:24.924Z,1.60
2023-01-30T18:56:57.612Z,1.60
2023-01-30T18:59:26.554Z,1.60
2023-01-30T19:01:55.176Z,1.60
2023-01-30T19:04:23.802Z,1.60
2023-01-30T19:06:51.995Z,1.50
2023-01-30T19:09:21.657Z,1.50
2023-01-30T19:12:07.191Z,1.50
2023-01-30T19:14:35.252Z,1.60
2023-01-30T19:17:03.300Z,1.60
2023-01-30T19:19:32.562Z,1.60
2023-01-30T19:22:00.643Z,1.60
2023-01-30T19:24:30.211Z,1.60
2023-01-30T19:26:58.231Z,1.70
2023-01-30T19:29:26.220Z,1.60
2023-01-30T19:31:54.717Z,1.60
2023-01-30T19:34:23.021Z,1.60
2023-01-30T19:36:51.161Z,1.60
2023-01-30T19:39:19.519Z,1.60
2023-01-30T19:41:48.965Z,1.60
2023-01-30T19:44:17.532Z,1.50
2023-01-30T19:46:46.330Z,1.40
2023-01-30T19:49:15.988Z,1.30
2023-01-30T19:51:44.122Z,1.30
2023-01-30T19:54:12.917Z,1.30
2023-01-30T19:56:47.548Z,1.30
2023-01-30T19:59:17.120Z,1.30
2023-01-30T20:01:45.568Z,1.40
2023-01-30T20:04:13.689Z,1.40
2023-01-30T20:06:44.405Z,1.50
2023-01-30T20:09:12.794Z,1.50
2023-01-30T20:11:42.091Z,1.60
2023-01-30T20:14:11.630Z,1.60
2023-01-30T20:16:41.134Z,1.70
2023-01-30T20:19:12.916Z,1.70
2023-01-30T20:21:41.232Z,1.70
2023-01-30T20:24:11.420Z,1.70
2023-01-30T20:26:40.004Z,1.70
2023-01-30T20:29:09.922Z,1.70
2023-01-30T20:31:41.293Z,1.80
2023-01-30T20:34:13.591Z,1.80
2023-01-30T20:36:41.694Z,1.80
2023-01-30T20:39:09.928Z,1.70
2023-01-30T20:41:38.750Z,1.80
2023-01-30T20:44:08.653Z,1.80
2023-01-30T20:46:41.030Z,1.80
2023-01-30T20:49:14.471Z,1.80
2023-01-30T20:51:43.237Z,1.80
2023-01-30T20:54:13.676Z,1.80
2023-01-30T20:56:43.912Z,1.80
2023-01-30T20:59:14.988Z,1.80
2023-01-30T21:01:43.853Z,1.80
2023-01-30T21:04:18.444Z,1.80
2023-01-30T21:06:47.283Z,1.80
2023-01-30T21:09:17.038Z,1.80
2023-01-30T21:11:45.861Z,1.80
2023-01-30T21:14:14.403Z,1.80
2023-01-30T21:16:42.955Z,1.80
2023-01-30T21:19:16.062Z,1.80
2023-01-30T21:21:50.408Z,1.80
2023-01-30T21:24:21.517Z,1.80
2023-01-30T21:26:50.190Z,1.80
2023-01-30T21:29:21.483Z,1.90
2023-01-30T21:31:49.794Z,1.90
2023-01-30T21:34:19.513Z,1.90
2023-01-30T21:37:08.023Z,1.90
2023-01-30T21:39:53.926Z,1.90
2023-01-30T21:42:39.345Z,1.90
2023-01-30T21:45:08.485Z,1.90
2023-01-30T21:47:39.956Z,1.90
2023-01-30T21:50:10.971Z,1.90
2023-01-30T21:52:39.156Z,1.90
2023-01-30T21:55:07.787Z,1.90
2023-01-30T21:57:36.602Z,1.90
2023-01-30T22:00:05.865Z,1.90
2023-01-30T22:02:34.254Z,1.90
2023-01-30T22:05:02.717Z,1.90
2023-01-30T22:07:33.203Z,1.90
2023-01-30T22:10:02.597Z,1.90
2023-01-30T22:12:32.763Z,1.90
2023-01-30T22:15:01.000Z,1.90
2023-01-30T22:17:29.137Z,1.90
2023-01-30T22:19:57.284Z,1.90
2023-01-30T22:22:26.062Z,1.80
2023-01-30T22:24:56.861Z,1.90
2023-01-30T22:27:25.376Z,1.90
2023-01-30T22:29:53.969Z,1.90
2023-01-30T22:32:22.290Z,1.90
2023-01-30T22:34:50.311Z,1.90
2023-01-30T22:37:20.722Z,1.90
2023-01-30T22:39:48.912Z,1.90
2023-01-30T22:42:19.025Z,1.90
2023-01-30T22:44:47.072Z,1.90
2023-01-30T22:47:16.175Z,1.90
2023-01-30T22:49:45.773Z,1.80
2023-01-30T22:52:19.408Z,1.90
2023-01-30T22:54:48.628Z,1.80
2023-01-30T22:57:21.523Z,1.80
2023-01-30T22:59:52.998Z,1.80
2023-01-30T23:02:23.840Z,1.80
2023-01-30T23:04:52.879Z,1.80
2023-01-30T23:07:22.533Z,1.80
2023-01-30T23:09:50.987Z,1.80
2023-01-30T23:12:38.356Z,1.80
2023-01-30T23:15:07.530Z,1.90
2023-01-30T23:17:53.016Z,1.90
2023-01-30T23:20:22.264Z,1.90
2023-01-30T23:22:53.647Z,1.90
2023-01-30T23:25:21.967Z,1.80
2023-01-30T23:27:51.639Z,1.80
2023-01-30T23:30:19.769Z,1.80
2023-01-30T23:32:47.748Z,1.80
2023-01-30T23:35:16.555Z,1.80
2023-01-30T23:38:01.780Z,1.80
2023-01-30T23:40:29.798Z,1.80
2023-01-30T23:42:59.155Z,1.80
2023-01-30T23:45:29.645Z,1.80
2023-01-30T23:47:57.619Z,1.80
2023-01-30T23:50:25.575Z,1.80
2023-01-30T23:52:53.635Z,1.80
2023-01-30T23:55:21.784Z,1.80
2023-01-30T23:57:51.438Z,1.80
